Time;durP1;ratioP1;P1;durP2;ratioP2;P2;SDS_P1;SDS_P2;PMS_P1;PMS_P2;Temp;Humidity;BMP_temperature;BMP_pressure;BME280_temperature;BME280_humidity;BME280_pressure;Samples;Min_cycle;Max_cycle;Signal;HPM_P1;HPM_P2
2022/11/12 00:00:29;;;;;;;42.05;26.63;;;5.60;99.90;;;;;;5056834;28;20081;-66
2022/11/12 00:02:54;;;;;;;48.22;27.67;;;5.60;99.90;;;;;;5062045;28;20040;-66
2022/11/12 00:05:20;;;;;;;43.05;27.17;;;5.60;99.90;;;;;;5057720;28;20674;-66
2022/11/12 00:07:46;;;;;;;43.65;25.98;;;5.80;99.90;;;;;;5061282;28;20526;-66
2022/11/12 00:10:11;;;;;;;25.02;10.77;;;5.70;99.90;;;;;;5061447;28;20382;-66
2022/11/12 00:12:37;;;;;;;39.83;25.02;;;5.60;99.90;;;;;;5063424;28;20123;-66
2022/11/12 00:15:03;;;;;;;17.00;10.30;;;5.60;99.90;;;;;;5062547;28;20422;-66
2022/11/12 00:17:28;;;;;;;19.90;8.15;;;5.60;99.90;;;;;;5065362;28;20028;-67
2022/11/12 00:19:54;;;;;;;32.40;23.83;;;5.50;99.90;;;;;;5063440;28;20135;-66
2022/11/12 00:22:20;;;;;;;33.78;23.88;;;5.50;99.90;;;;;;5062314;28;20471;-66
2022/11/12 00:24:46;;;;;;;20.55;9.02;;;5.40;99.90;;;;;;5062282;28;20037;-66
2022/11/12 00:27:12;;;;;;;36.90;24.88;;;5.50;99.90;;;;;;5064102;28;20041;-66
2022/11/12 00:29:38;;;;;;;15.60;8.90;;;5.40;99.90;;;;;;5060922;28;20458;-66
2022/11/12 00:32:07;;;;;;;14.40;7.82;;;5.40;99.90;;;;;;5064327;28;20040;-66
2022/11/12 00:34:33;;;;;;;42.05;25.38;;;5.50;99.90;;;;;;5060219;28;20044;-66
2022/11/12 00:36:59;;;;;;;17.55;9.00;;;5.40;99.90;;;;;;5057490;28;20080;-66
2022/11/12 00:39:25;;;;;;;36.60;24.90;;;5.30;99.90;;;;;;5064313;28;20413;-66
2022/11/12 00:41:51;;;;;;;41.38;10.70;;;5.30;99.90;;;;;;5063822;28;20047;-66
2022/11/12 00:44:16;;;;;;;17.38;9.00;;;5.30;99.90;;;;;;5063831;28;20067;-66
2022/11/12 00:46:42;;;;;;;13.95;7.18;;;5.30;99.90;;;;;;5064207;28;20040;-66
2022/11/12 00:49:08;;;;;;;32.42;23.50;;;5.20;99.90;;;;;;5061785;28;20044;-66
2022/11/12 00:51:34;;;;;;;14.93;8.68;;;5.20;99.90;;;;;;5064161;28;20055;-66
2022/11/12 00:54:00;;;;;;;41.80;27.38;;;5.20;99.90;;;;;;5063393;28;20045;-66
2022/11/12 00:56:26;;;;;;;20.73;8.93;;;5.20;99.90;;;;;;5060181;28;20512;-65
2022/11/12 00:58:52;;;;;;;21.35;10.07;;;5.20;99.90;;;;;;5060834;28;20052;-66
2022/11/12 01:01:18;;;;;;;14.23;8.85;;;5.10;99.90;;;;;;5060916;28;20163;-65
2022/11/12 01:03:44;;;;;;;39.30;26.30;;;5.10;99.90;;;;;;5062271;28;20068;-66
2022/11/12 01:06:18;;;;;;;22.10;11.27;;;5.00;99.90;;;;;;5064860;28;20044;-66
2022/11/12 01:08:44;;;;;;;23.50;14.13;;;5.10;99.90;;;;;;5066419;28;20090;-66
2022/11/12 01:11:25;;;;;;;43.20;28.95;;;5.00;99.90;;;;;;5065349;28;20040;-66
2022/11/12 01:13:59;;;;;;;21.42;9.85;;;5.10;99.90;;;;;;5063163;28;20119;-66
2022/11/12 01:16:27;;;;;;;34.58;26.85;;;5.00;99.90;;;;;;5067185;28;20037;-65
2022/11/12 01:18:54;;;;;;;;;;;5.10;99.90;;;;;;5066820;28;20545;-65
2022/11/12 01:21:21;;;;;;;43.47;28.60;;;5.00;99.90;;;;;;5065532;28;20573;-65
2022/11/12 01:23:46;;;;;;;17.23;8.95;;;5.20;99.90;;;;;;5063815;28;20435;-65
2022/11/12 01:26:16;;;;;;;24.48;11.60;;;5.10;99.90;;;;;;5065897;28;20051;-65
2022/11/12 01:28:42;;;;;;;48.92;29.33;;;5.00;99.90;;;;;;5066748;28;20098;-65
2022/11/12 01:31:23;;;;;;;39.05;28.10;;;5.00;99.90;;;;;;5067012;28;20072;-65
2022/11/12 01:33:52;;;;;;;23.88;13.43;;;5.10;99.90;;;;;;5064529;28;20048;-65
2022/11/12 01:36:18;;;;;;;18.38;10.88;;;5.00;99.90;;;;;;5065741;28;20098;-65
2022/11/12 01:38:45;;;;;;;16.15;8.55;;;5.00;99.90;;;;;;5066657;28;20048;-65
2022/11/12 01:41:14;;;;;;;15.30;10.32;;;5.00;99.90;;;;;;5066987;28;20152;-66
2022/11/12 01:43:40;;;;;;;;;;;4.90;99.90;;;;;;5064256;28;20047;-66
2022/11/12 01:46:12;;;;;;;13.15;7.68;;;4.80;99.90;;;;;;5061401;28;19925;-65
2022/11/12 01:48:47;;;;;;;18.17;9.05;;;4.70;99.90;;;;;;5063679;28;20078;-65
2022/11/12 01:51:14;;;;;;;16.95;9.18;;;4.80;99.90;;;;;;5062071;28;20436;-65
2022/11/12 01:53:44;;;;;;;17.50;11.15;;;4.70;99.90;;;;;;5061251;28;20584;-65
2022/11/12 01:56:10;;;;;;;20.17;10.23;;;4.70;99.90;;;;;;5066254;28;20050;-65
2022/11/12 01:58:38;;;;;;;17.98;9.80;;;4.70;99.90;;;;;;5063044;28;20652;-65
2022/11/12 02:01:05;;;;;;;46.92;32.78;;;4.70;99.90;;;;;;5062978;28;20045;-65
2022/11/12 02:03:31;;;;;;;47.03;34.17;;;4.70;99.90;;;;;;5061334;28;20055;-65
2022/11/12 02:06:05;;;;;;;42.67;32.80;;;4.80;99.90;;;;;;5063300;28;20060;-65
2022/11/12 02:08:31;;;;;;;23.75;12.23;;;4.90;99.90;;;;;;5045671;28;20045;-65
2022/11/12 02:10:57;;;;;;;23.33;12.30;;;4.90;99.90;;;;;;5060850;28;20080;-65
2022/11/12 02:16:09;;;;;;;26.45;12.32;;;4.80;99.90;;;;;;5062967;28;20052;-65
2022/11/12 02:18:35;;;;;;;47.75;33.10;;;4.80;99.90;;;;;;5063495;28;20083;-65
2022/11/12 02:21:07;;;;;;;19.27;11.20;;;4.70;99.90;;;;;;5065447;28;20562;-64
2022/11/12 02:23:33;;;;;;;11.48;8.68;;;4.90;99.90;;;;;;5065859;28;20058;-64
2022/11/12 02:26:00;;;;;;;45.45;32.72;;;4.80;99.90;;;;;;5065744;28;20048;-65
2022/11/12 02:28:27;;;;;;;45.45;32.92;;;4.80;99.90;;;;;;5062196;28;20397;-65
2022/11/12 02:30:53;;;;;;;55.95;35.90;;;4.80;99.90;;;;;;5064451;28;20045;-65
2022/11/12 02:33:18;;;;;;;18.60;10.52;;;4.80;99.90;;;;;;5059077;28;20044;-65
2022/11/12 02:35:44;;;;;;;37.05;14.43;;;4.80;99.90;;;;;;5064371;28;20045;-66
2022/11/12 02:38:10;;;;;;;29.92;13.65;;;4.70;99.90;;;;;;5067449;28;20086;-66
2022/11/12 02:40:36;;;;;;;23.67;10.77;;;4.70;99.90;;;;;;5063561;28;20044;-65
2022/11/12 02:43:02;;;;;;;34.25;16.00;;;4.70;99.90;;;;;;5057735;28;20048;-65
2022/11/12 02:45:29;;;;;;;42.78;30.48;;;4.60;99.90;;;;;;5063608;28;20049;-66
2022/11/12 02:47:55;;;;;;;39.25;29.88;;;4.60;99.90;;;;;;5061655;28;20106;-66
2022/11/12 02:50:20;;;;;;;16.38;9.23;;;4.60;99.90;;;;;;5065915;28;20048;-66
2022/11/12 02:52:46;;;;;;;35.17;25.92;;;4.50;99.90;;;;;;5065864;28;20041;-65
2022/11/12 02:55:12;;;;;;;20.00;10.07;;;4.60;99.90;;;;;;5063382;28;20044;-65
2022/11/12 02:57:39;;;;;;;16.33;8.25;;;4.50;99.90;;;;;;5065757;28;20033;-65
2022/11/12 03:00:07;;;;;;;37.58;28.38;;;4.50;99.90;;;;;;5062928;28;20571;-65
2022/11/12 03:02:33;;;;;;;21.77;9.85;;;4.50;99.90;;;;;;5062640;28;20544;-65
2022/11/12 03:04:59;;;;;;;34.45;26.65;;;4.50;99.90;;;;;;5061379;28;20079;-65
2022/11/12 03:07:24;;;;;;;18.50;9.52;;;4.50;99.90;;;;;;5062319;28;20076;-66
2022/11/12 03:09:50;;;;;;;43.78;27.80;;;4.40;99.90;;;;;;5067021;28;20044;-65
2022/11/12 03:12:16;;;;;;;20.02;12.35;;;4.40;99.90;;;;;;5064151;28;20044;-65
2022/11/12 03:14:42;;;;;;;17.42;10.20;;;4.50;99.90;;;;;;5062780;28;20375;-65
2022/11/12 03:17:07;;;;;;;26.27;21.35;;;4.40;99.90;;;;;;5062157;28;20082;-65
2022/11/12 03:19:33;;;;;;;18.60;11.13;;;4.30;99.90;;;;;;5061791;28;20676;-65
2022/11/12 03:21:59;;;;;;;32.40;23.50;;;4.30;99.90;;;;;;5063057;28;20119;-65
2022/11/12 03:24:24;;;;;;;15.57;8.88;;;4.30;99.90;;;;;;5061860;28;20082;-65
2022/11/12 03:26:51;;;;;;;26.15;11.48;;;4.30;99.90;;;;;;5065040;28;20547;-65
2022/11/12 03:29:16;;;;;;;17.60;9.43;;;4.20;99.90;;;;;;5059342;28;20105;-65
2022/11/12 03:31:42;;;;;;;18.10;9.65;;;4.20;99.90;;;;;;5061574;28;20036;-65
2022/11/12 03:34:09;;;;;;;10.93;7.43;;;4.10;99.90;;;;;;5064548;28;20040;-65
2022/11/12 03:36:34;;;;;;;24.58;19.35;;;4.10;99.90;;;;;;5061542;28;20121;-66
2022/11/12 03:39:00;;;;;;;13.27;7.90;;;4.10;99.90;;;;;;5065238;28;20032;-65
2022/11/12 03:41:26;;;;;;;30.83;23.15;;;4.10;99.90;;;;;;5061664;28;20041;-65
2022/11/12 03:43:51;;;;;;;17.40;8.75;;;4.10;99.90;;;;;;5063663;28;20101;-65
2022/11/12 03:46:17;;;;;;;12.85;7.20;;;4.10;99.90;;;;;;5062912;28;20045;-65
2022/11/12 03:48:42;;;;;;;25.42;21.50;;;4.10;99.90;;;;;;5057194;28;20729;-65
2022/11/12 03:51:11;;;;;;;14.90;8.10;;;4.10;99.90;;;;;;5062545;28;20043;-65
2022/11/12 03:53:36;;;;;;;19.23;9.43;;;4.10;99.90;;;;;;5058297;28;20584;-65
2022/11/12 03:56:02;;;;;;;27.75;21.58;;;4.10;99.90;;;;;;5063544;28;20045;-65
2022/11/12 03:58:28;;;;;;;13.35;8.10;;;4.00;99.90;;;;;;5062505;28;20037;-66
2022/11/12 04:00:54;;;;;;;41.72;23.38;;;4.20;99.90;;;;;;5062688;28;20125;-65
2022/11/12 04:03:20;;;;;;;14.20;7.00;;;4.10;99.90;;;;;;5059298;28;20066;-65
2022/11/12 04:08:36;;;;;;;16.50;9.23;;;4.10;99.90;;;;;;5063628;28;20516;-65
2022/11/12 04:11:04;;;;;;;17.00;7.75;;;4.00;99.90;;;;;;5063090;28;20541;-65
2022/11/12 04:13:31;;;;;;;14.15;9.00;;;3.90;99.90;;;;;;5064129;28;21829;-65
2022/11/12 04:21:50;;;;;;;16.33;7.72;;;3.80;99.90;;;;;;5063546;28;20057;-66
2022/11/12 04:27:10;;;;;;;24.20;18.92;;;3.70;99.90;;;;;;5057691;28;20048;-65
2022/11/12 04:32:20;;;;;;;13.35;6.50;;;3.70;99.90;;;;;;5059834;28;20045;-65
2022/11/12 04:34:46;;;;;;;9.60;7.45;;;3.60;99.90;;;;;;5061012;28;20132;-65
2022/11/12 04:37:12;;;;;;;13.90;8.05;;;3.60;99.90;;;;;;5063511;28;20111;-65
2022/11/12 04:39:37;;;;;;;14.68;8.18;;;3.60;99.90;;;;;;5062951;28;20041;-65
2022/11/12 04:45:04;;;;;;;30.67;22.92;;;3.40;99.90;;;;;;5064231;28;20073;-65
2022/11/12 04:47:38;;;;;;;21.30;9.13;;;3.50;99.90;;;;;;5064672;28;20097;-65
2022/11/12 04:50:07;;;;;;;14.57;7.40;;;3.40;99.90;;;;;;5063411;28;20048;-65
2022/11/12 04:52:33;;;;;;;11.25;7.40;;;3.40;99.90;;;;;;5063394;28;20401;-65
2022/11/12 04:54:59;;;;;;;13.15;9.32;;;3.30;99.90;;;;;;5064678;28;20106;-65
2022/11/12 04:57:25;;;;;;;11.82;7.68;;;3.40;99.90;;;;;;5065424;28;20075;-65
2022/11/12 04:59:51;;;;;;;16.70;8.23;;;3.30;99.90;;;;;;5063739;28;20043;-65
2022/11/12 05:02:17;;;;;;;14.27;6.10;;;3.30;99.90;;;;;;5064432;28;20044;-65
2022/11/12 05:04:43;;;;;;;25.20;19.33;;;3.20;99.90;;;;;;5063589;28;20028;-65
2022/11/12 05:07:09;;;;;;;14.07;7.07;;;3.30;99.90;;;;;;5063788;28;20040;-65
2022/11/12 05:09:36;;;;;;;13.90;7.50;;;3.20;99.90;;;;;;5063121;28;20044;-65
2022/11/12 05:12:02;;;;;;;15.85;6.70;;;3.10;99.90;;;;;;5065721;28;20087;-65
2022/11/12 05:14:28;;;;;;;23.02;19.90;;;3.10;99.90;;;;;;5064362;28;20463;-65
2022/11/12 05:16:54;;;;;;;15.73;7.28;;;3.20;99.90;;;;;;5062228;28;20044;-65
2022/11/12 05:19:20;;;;;;;15.90;8.57;;;3.20;99.90;;;;;;5096323;28;20139;-65
2022/11/12 05:22:04;;;;;;;10.02;6.15;;;3.20;99.90;;;;;;5062049;28;20075;-65
2022/11/12 05:24:40;;;;;;;14.25;7.70;;;3.10;99.90;;;;;;5064920;28;20075;-65
2022/11/12 05:27:13;;;;;;;27.40;21.25;;;3.10;99.90;;;;;;5065074;28;20071;-65
2022/11/12 05:29:39;;;;;;;28.02;9.30;;;3.10;99.90;;;;;;5064003;28;20059;-65
2022/11/12 05:32:06;;;;;;;9.57;5.88;;;3.10;99.90;;;;;;5060664;28;20048;-65
2022/11/12 05:34:32;;;;;;;30.38;19.98;;;3.10;99.90;;;;;;5091259;28;20529;-65
2022/11/12 05:37:01;;;;;;;10.15;5.43;;;3.10;99.90;;;;;;5065288;28;20044;-65
2022/11/12 05:39:27;;;;;;;10.05;5.80;;;3.10;99.90;;;;;;5062198;28;20040;-65
2022/11/12 05:41:53;;;;;;;9.95;5.28;;;3.00;99.90;;;;;;5063820;28;20079;-65
2022/11/12 05:44:19;;;;;;;24.50;15.77;;;3.00;99.90;;;;;;5063857;28;20123;-65
2022/11/12 05:46:45;;;;;;;10.15;5.90;;;3.00;99.90;;;;;;5062088;28;20098;-65
2022/11/12 05:49:11;;;;;;;7.97;4.82;;;3.00;99.90;;;;;;5060024;28;20045;-65
2022/11/12 05:51:37;;;;;;;13.75;6.63;;;2.90;99.90;;;;;;5060857;28;20482;-65
2022/11/12 05:54:03;;;;;;;4.60;3.45;;;2.90;99.90;;;;;;5058767;28;20044;-65
2022/11/12 05:56:28;;;;;;;7.10;5.07;;;2.90;99.90;;;;;;5066417;28;20036;-65
2022/11/12 05:58:54;;;;;;;10.57;5.85;;;2.80;99.90;;;;;;5065088;28;20043;-65
2022/11/12 06:01:20;;;;;;;17.77;5.70;;;2.70;99.90;;;;;;5066646;28;20048;-66
2022/11/12 06:03:46;;;;;;;12.15;6.13;;;2.80;99.90;;;;;;5065457;28;20047;-65
2022/11/12 06:06:12;;;;;;;10.45;5.47;;;2.80;99.90;;;;;;5064834;28;20500;-65
2022/11/12 06:08:37;;;;;;;11.15;5.13;;;2.70;99.90;;;;;;5067749;28;20045;-65
2022/11/12 06:11:03;;;;;;;10.95;6.15;;;2.70;99.90;;;;;;5065613;28;20041;-65
2022/11/12 06:13:29;;;;;;;16.90;7.22;;;2.70;99.90;;;;;;5065775;28;20037;-65
2022/11/12 06:15:55;;;;;;;13.88;6.40;;;2.80;99.90;;;;;;5064125;28;20032;-65
2022/11/12 06:18:22;;;;;;;18.42;14.50;;;2.70;99.90;;;;;;5065093;28;20044;-65
2022/11/12 06:21:18;;;;;;;7.93;5.35;;;2.70;99.90;;;;;;5066908;28;20094;-65
2022/11/12 06:23:34;;;;;;;6.45;3.92;;;2.70;99.90;;;;;;5065550;28;20087;-65
2022/11/12 06:26:00;;;;;;;6.15;5.22;;;2.70;99.90;;;;;;5066047;28;20498;-65
2022/11/12 06:28:25;;;;;;;18.45;13.35;;;2.70;99.90;;;;;;5067720;28;20524;-65
2022/11/12 06:30:52;;;;;;;4.32;3.58;;;2.70;99.90;;;;;;5066435;28;20052;-65
2022/11/12 06:33:18;;;;;;;10.57;5.35;;;2.70;99.90;;;;;;5065161;28;20036;-65
2022/11/12 06:35:44;;;;;;;6.43;4.57;;;2.70;99.90;;;;;;5066846;28;20048;-66
2022/11/12 06:38:10;;;;;;;16.23;13.15;;;2.60;99.90;;;;;;5066447;28;20056;-65
2022/11/12 06:40:36;;;;;;;9.13;4.82;;;2.50;99.90;;;;;;5065853;28;20052;-66
2022/11/12 06:43:01;;;;;;;13.50;6.22;;;2.60;99.90;;;;;;5067565;28;20032;-65
2022/11/12 06:45:27;;;;;;;12.52;5.15;;;2.60;99.90;;;;;;5063774;28;20599;-65
2022/11/12 06:47:56;;;;;;;11.23;4.65;;;2.50;99.90;;;;;;5066311;28;20049;-65
2022/11/12 06:50:22;;;;;;;15.02;4.72;;;2.50;99.90;;;;;;5063964;28;20044;-65
2022/11/12 06:52:48;;;;;;;9.32;6.78;;;2.40;99.90;;;;;;5066296;28;20413;-65
2022/11/12 06:55:13;;;;;;;7.75;4.50;;;2.40;99.90;;;;;;5066593;28;20171;-64
2022/11/12 06:57:39;;;;;;;15.98;13.77;;;2.40;99.90;;;;;;5066562;28;20417;-65
2022/11/12 07:00:05;;;;;;;9.82;6.15;;;2.40;99.90;;;;;;5064836;28;20045;-65
2022/11/12 07:02:31;;;;;;;10.93;7.70;;;2.50;99.90;;;;;;5095523;28;20045;-65
2022/11/12 07:04:57;;;;;;;6.80;4.90;;;2.40;99.90;;;;;;5066184;28;20178;-65
2022/11/12 07:07:22;;;;;;;8.70;5.18;;;2.40;99.90;;;;;;5065452;28;20036;-65
2022/11/12 07:09:48;;;;;;;10.73;6.22;;;2.50;99.90;;;;;;5063683;28;20044;-65
2022/11/12 07:12:13;;;;;;;11.50;4.97;;;2.50;99.90;;;;;;5062230;28;20088;-65
2022/11/12 07:14:39;;;;;;;10.45;5.90;;;2.50;99.90;;;;;;5065827;28;20131;-66
2022/11/12 07:17:05;;;;;;;9.60;6.13;;;2.60;99.90;;;;;;5066300;28;20125;-65
2022/11/12 07:19:30;;;;;;;15.68;13.75;;;2.60;99.90;;;;;;5066755;28;20742;-65
2022/11/12 07:21:56;;;;;;;17.23;13.38;;;2.50;99.90;;;;;;5065219;28;20048;-65
2022/11/12 07:24:21;;;;;;;8.02;4.90;;;2.60;99.90;;;;;;5066172;28;20037;-65
2022/11/12 07:26:47;;;;;;;7.60;5.18;;;2.50;99.90;;;;;;5066350;28;20055;-65
2022/11/12 07:29:13;;;;;;;11.63;5.88;;;2.60;99.90;;;;;;5063415;28;20048;-65
2022/11/12 07:31:39;;;;;;;11.18;5.60;;;2.50;99.90;;;;;;5060172;28;20045;-65
2022/11/12 07:34:05;;;;;;;8.73;4.57;;;2.50;99.90;;;;;;5064389;28;20048;-65
2022/11/12 07:36:32;;;;;;;9.50;6.20;;;2.50;99.90;;;;;;5057968;28;20101;-65
2022/11/12 07:38:57;;;;;;;7.70;5.38;;;2.50;99.90;;;;;;5064069;28;20813;-65
2022/11/12 07:41:24;;;;;;;20.05;15.18;;;2.50;99.90;;;;;;5063854;28;20051;-65
2022/11/12 07:43:52;;;;;;;12.65;5.85;;;2.60;99.90;;;;;;5064839;28;20037;-65
2022/11/12 07:46:24;;;;;;;19.20;15.45;;;2.60;99.90;;;;;;5066137;28;20056;-65
2022/11/12 07:48:50;;;;;;;7.68;6.40;;;2.60;99.90;;;;;;5095211;28;20047;-65
2022/11/12 07:51:18;;;;;;;12.18;5.70;;;2.70;99.90;;;;;;5062501;28;20123;-65
2022/11/12 07:53:45;;;;;;;13.73;7.00;;;2.70;99.90;;;;;;5063868;28;20493;-65
2022/11/12 07:56:13;;;;;;;13.65;6.88;;;2.70;99.90;;;;;;5064023;28;20124;-65
2022/11/12 07:58:39;;;;;;;23.95;18.88;;;2.80;99.90;;;;;;5062744;28;20162;-65
2022/11/12 08:01:10;;;;;;;11.90;7.05;;;2.90;99.90;;;;;;5064466;28;20044;-65
2022/11/12 08:03:36;;;;;;;17.50;8.52;;;2.90;99.90;;;;;;5061070;28;20086;-66
2022/11/12 08:06:02;;;;;;;10.25;6.05;;;2.80;99.90;;;;;;5058398;28;20036;-65
2022/11/12 08:08:28;;;;;;;24.30;18.75;;;2.90;99.90;;;;;;5058738;28;20048;-65
2022/11/12 08:10:58;;;;;;;15.18;6.72;;;2.90;99.90;;;;;;5060338;28;20072;-65
2022/11/12 08:13:24;;;;;;;13.18;7.40;;;3.10;99.90;;;;;;5060642;28;20131;-65
2022/11/12 08:15:50;;;;;;;10.98;6.10;;;3.00;99.90;;;;;;5059754;28;20041;-65
2022/11/12 08:18:16;;;;;;;17.30;7.20;;;3.10;99.90;;;;;;5063565;28;20501;-65
2022/11/12 08:20:42;;;;;;;26.17;19.83;;;3.10;99.90;;;;;;5064494;28;20048;-65
2022/11/12 08:23:10;;;;;;;14.20;7.32;;;3.30;99.90;;;;;;5062625;28;20388;-65
2022/11/12 08:25:36;;;;;;;26.70;19.88;;;3.40;99.90;;;;;;5062027;28;20044;-65
2022/11/12 08:28:01;;;;;;;32.55;23.48;;;3.50;99.90;;;;;;5070361;28;20143;-65
2022/11/12 08:30:28;;;;;;;26.58;10.63;;;3.60;99.90;;;;;;5063518;28;20154;-65
2022/11/12 08:32:59;;;;;;;25.50;16.30;;;3.60;99.90;;;;;;5090890;28;20048;-65
2022/11/12 08:35:26;;;;;;;42.13;20.65;;;3.60;99.90;;;;;;5061355;28;20044;-65
2022/11/12 08:38:00;;;;;;;34.55;20.08;;;3.70;99.90;;;;;;5059657;28;20413;-65
2022/11/12 08:40:31;;;;;;;23.55;13.10;;;3.80;99.90;;;;;;5057166;28;20845;-65
2022/11/12 08:43:02;;;;;;;42.83;29.42;;;3.80;99.90;;;;;;5057641;28;20052;-65
2022/11/12 08:45:35;;;;;;;18.55;9.52;;;3.90;99.90;;;;;;5059088;28;20051;-66
2022/11/12 08:48:03;;;;;;;29.73;25.27;;;4.00;99.90;;;;;;5065787;28;20090;-65
2022/11/12 08:50:30;;;;;;;29.70;25.65;;;4.10;99.90;;;;;;5063957;28;20497;-65
2022/11/12 08:53:08;;;;;;;18.35;8.80;;;4.10;99.90;;;;;;5058971;28;20032;-65
2022/11/12 08:55:34;;;;;;;16.58;9.40;;;4.20;99.90;;;;;;5068844;28;20052;-66
2022/11/12 08:58:01;;;;;;;19.83;10.13;;;4.20;99.90;;;;;;5058517;28;20041;-65
2022/11/12 09:00:35;;;;;;;15.52;10.38;;;4.30;99.90;;;;;;5051520;28;20053;-65
2022/11/12 09:03:05;;;;;;;14.73;6.65;;;4.30;99.90;;;;;;5058288;28;20127;-66
2022/11/12 09:05:31;;;;;;;16.08;9.98;;;4.30;99.90;;;;;;5058711;28;20113;-66
2022/11/12 09:08:17;;;;;;;14.02;9.55;;;4.50;99.90;;;;;;5058101;28;20040;-66
2022/11/12 09:10:44;;;;;;;30.67;9.02;;;4.50;99.90;;;;;;5058658;28;20048;-66
2022/11/12 09:13:10;;;;;;;50.55;35.08;;;4.60;99.90;;;;;;5062324;28;20769;-66
2022/11/12 09:15:36;;;;;;;15.88;10.63;;;4.60;99.90;;;;;;5062764;28;20048;-65
2022/11/12 09:18:04;;;;;;;20.48;10.60;;;4.70;99.90;;;;;;5059797;28;20505;-65
2022/11/12 09:20:30;;;;;;;22.67;10.38;;;4.80;99.90;;;;;;5060910;28;20455;-66
2022/11/12 09:23:16;;;;;;;53.08;34.33;;;4.90;99.90;;;;;;5059414;28;20047;-65
2022/11/12 09:25:43;;;;;;;21.35;14.10;;;5.00;99.90;;;;;;5062003;28;20413;-66
2022/11/12 09:28:12;;;;;;;17.98;11.15;;;5.20;99.90;;;;;;5065509;28;20098;-65
2022/11/12 09:30:49;;;;;;;17.70;10.30;;;5.20;99.90;;;;;;5059299;28;20047;-66
2022/11/12 09:33:17;;;;;;;15.95;8.77;;;5.30;99.90;;;;;;5065189;28;20085;-66
2022/11/12 09:35:44;;;;;;;48.28;34.30;;;5.50;99.90;;;;;;5064553;28;20044;-66
2022/11/12 09:38:10;;;;;;;49.78;37.60;;;5.60;99.90;;;;;;5064108;28;20037;-66
2022/11/12 09:41:00;;;;;;;31.80;12.05;;;5.70;99.90;;;;;;5066365;28;20044;-66
2022/11/12 09:43:38;;;;;;;23.30;14.90;;;5.90;99.90;;;;;;5066679;28;20055;-66
2022/11/12 09:46:15;;;;;;;24.20;14.68;;;6.00;99.90;;;;;;5063265;28;20083;-66
2022/11/12 09:48:50;;;;;;;25.55;14.00;;;6.10;99.90;;;;;;5063048;28;20556;-66
2022/11/12 09:51:31;;;;;;;23.73;13.27;;;6.30;99.90;;;;;;5062678;28;20047;-66
2022/11/12 09:54:24;;;;;;;29.40;15.43;;;6.50;99.90;;;;;;5063256;28;20098;-66
2022/11/12 09:56:51;;;;;;;56.45;41.72;;;6.60;99.90;;;;;;5058688;28;20448;-66
2022/11/12 09:59:21;;;;;;;47.20;19.40;;;6.70;99.90;;;;;;5064137;28;20102;-66
2022/11/12 10:02:22;;;;;;;23.33;15.20;;;6.90;99.90;;;;;;5062944;28;20040;-66
2022/11/12 10:05:24;;;;;;;56.15;43.45;;;7.20;99.90;;;;;;5057353;28;20426;-67
2022/11/12 10:07:58;;;;;;;56.63;42.05;;;7.40;99.90;;;;;;5067036;28;20051;-66
2022/11/12 10:10:42;;;;;;;29.10;15.90;;;7.50;99.90;;;;;;5066221;28;20573;-66
2022/11/12 10:13:17;;;;;;;71.57;44.90;;;7.70;99.90;;;;;;5064376;28;20083;-66
2022/11/12 10:19:28;;;;;;;56.72;41.28;;;8.00;99.90;;;;;;5067042;28;20044;-66
2022/11/12 10:22:03;;;;;;;57.75;42.22;;;8.20;99.90;;;;;;5068110;28;20114;-66
2022/11/12 10:24:34;;;;;;;51.15;39.50;;;8.30;99.90;;;;;;5067419;28;20110;-66
2022/11/12 10:27:01;;;;;;;52.10;40.30;;;8.50;99.90;;;;;;5066727;28;20067;-66
2022/11/12 10:29:58;;;;;;;53.13;39.88;;;8.70;99.90;;;;;;5061415;28;20056;-66
2022/11/12 10:32:24;;;;;;;39.92;17.13;;;8.80;99.90;;;;;;5065176;28;20066;-66
2022/11/12 10:34:50;;;;;;;28.73;15.88;;;9.00;99.90;;;;;;5066285;28;20127;-66
2022/11/12 10:37:32;;;;;;;51.22;39.75;;;9.10;99.90;;;;;;5064308;28;20675;-66
2022/11/12 10:39:58;;;;;;;38.55;18.40;;;9.30;99.90;;;;;;5065464;28;20057;-66
2022/11/12 10:42:24;;;;;;;58.45;41.10;;;9.30;99.90;;;;;;5066618;28;20060;-66
2022/11/12 10:44:50;;;;;;;51.22;39.20;;;9.40;99.90;;;;;;5066806;28;20094;-66
2022/11/12 10:47:25;;;;;;;60.58;38.72;;;9.40;99.90;;;;;;5066039;28;20101;-66
2022/11/12 10:50:12;;;;;;;53.35;39.08;;;9.50;99.90;;;;;;5068084;28;20051;-66
2022/11/12 10:52:38;;;;;;;54.05;37.75;;;9.60;99.90;;;;;;5060939;28;20052;-66
2022/11/12 10:55:19;;;;;;;51.65;38.13;;;9.50;99.90;;;;;;5064324;28;20060;-66
2022/11/12 10:57:45;;;;;;;50.97;37.80;;;9.60;99.90;;;;;;5060830;28;20102;-66
2022/11/12 11:00:15;;;;;;;47.08;36.97;;;9.70;99.90;;;;;;5066846;28;20551;-66
2022/11/12 11:02:52;;;;;;;52.47;35.42;;;9.70;99.90;;;;;;5059701;28;20057;-66
2022/11/12 11:05:33;;;;;;;51.53;38.17;;;9.70;99.90;;;;;;5062661;28;20090;-66
2022/11/12 11:08:00;;;;;;;50.70;37.90;;;9.70;99.90;;;;;;5066775;28;20049;-66
2022/11/12 11:10:34;;;;;;;47.95;35.17;;;9.80;99.90;;;;;;5066395;28;20044;-66
2022/11/12 11:13:26;;;;;;;51.22;37.35;;;9.80;99.90;;;;;;5063728;28;20131;-67
2022/11/12 11:15:59;;;;;;;49.38;34.45;;;9.80;99.90;;;;;;5064241;28;20569;-66
2022/11/12 11:18:26;;;;;;;53.15;36.08;;;9.80;99.90;;;;;;5066978;28;20033;-66
2022/11/12 11:21:00;;;;;;;49.22;36.38;;;9.90;99.90;;;;;;5061151;28;20583;-66
2022/11/12 11:23:59;;;;;;;59.22;39.67;;;10.00;99.90;;;;;;5063174;28;20110;-66
2022/11/12 11:26:53;;;;;;;31.13;17.67;;;10.10;99.90;;;;;;5060291;28;20123;-66
2022/11/12 11:29:43;;;;;;;50.05;36.97;;;10.20;99.90;;;;;;5064820;28;20041;-66
2022/11/12 11:32:39;;;;;;;54.92;35.10;;;10.30;99.90;;;;;;5066303;28;20040;-66
2022/11/12 11:35:05;;;;;;;49.30;33.78;;;10.40;99.90;;;;;;5062407;28;20044;-66
2022/11/12 11:37:56;;;;;;;48.33;37.72;;;10.60;99.90;;;;;;5066542;28;20045;-66
2022/11/12 11:40:30;;;;;;;59.50;37.30;;;10.50;99.90;;;;;;5062501;28;20132;-66
2022/11/12 11:43:23;;;;;;;43.30;35.92;;;10.60;99.90;;;;;;5061530;28;20047;-66
2022/11/12 11:46:14;;;;;;;44.05;35.08;;;10.60;99.90;;;;;;5063291;28;20072;-66
2022/11/12 11:48:48;;;;;;;51.25;37.85;;;10.70;99.90;;;;;;5058924;28;20050;-66
2022/11/12 11:51:13;;;;;;;81.82;40.40;;;10.70;99.90;;;;;;5066111;28;20135;-66
2022/11/12 11:53:39;;;;;;;54.75;33.50;;;10.80;99.90;;;;;;5065622;28;20127;-66
2022/11/12 11:56:09;;;;;;;46.95;33.40;;;10.90;99.90;;;;;;5065586;28;20028;-66
2022/11/12 11:58:49;;;;;;;60.20;36.63;;;11.00;99.90;;;;;;5059185;28;20055;-68
2022/11/12 12:01:40;;;;;;;48.58;33.90;;;11.10;99.90;;;;;;5058748;28;20037;-67
2022/11/12 12:04:20;;;;;;;47.80;33.45;;;11.10;99.90;;;;;;5058478;28;20834;-66
2022/11/12 12:06:59;;;;;;;50.13;34.13;;;11.10;99.90;;;;;;5056895;28;20056;-66
2022/11/12 12:09:34;;;;;;;42.92;33.55;;;11.20;99.90;;;;;;5062293;28;20123;-66
2022/11/12 12:12:05;;;;;;;62.30;36.08;;;11.30;99.90;;;;;;5062656;28;20127;-65
2022/11/12 12:15:09;;;;;;;54.85;37.50;;;11.30;99.90;;;;;;5090481;28;20611;-65
2022/11/12 12:18:05;;;;;;;43.95;34.40;;;11.50;99.90;;;;;;5042678;28;20059;-65
2022/11/12 12:20:52;;;;;;;42.70;33.03;;;11.60;99.90;;;;;;5061162;28;20060;-65
2022/11/12 12:23:27;;;;;;;46.63;33.30;;;11.60;99.90;;;;;;5062182;28;20046;-66
2022/11/12 12:25:56;;;;;;;53.67;35.70;;;12.00;99.90;;;;;;5091522;28;20881;-66
2022/11/12 12:28:36;;;;;;;47.85;34.72;;;12.10;99.90;;;;;;5059832;28;20055;-66
2022/11/12 12:31:12;;;;;;;49.33;33.40;;;12.20;99.90;;;;;;5059368;28;20080;-65
2022/11/12 12:33:47;;;;;;;47.05;32.75;;;12.30;99.90;;;;;;5063610;28;20052;-65
2022/11/12 12:36:24;;;;;;;42.38;33.00;;;12.40;99.90;;;;;;5064415;28;20036;-65
2022/11/12 12:39:08;;;;;;;45.20;33.63;;;12.30;99.90;;;;;;5063496;28;20076;-65
2022/11/12 12:41:46;;;;;;;48.30;31.88;;;12.50;99.90;;;;;;5062734;28;20052;-65
2022/11/12 12:44:12;;;;;;;43.25;31.77;;;12.40;99.90;;;;;;5059511;28;20080;-65
2022/11/12 12:46:59;;;;;;;64.72;31.92;;;12.50;99.90;;;;;;5060490;28;20151;-65
2022/11/12 12:49:32;;;;;;;42.08;31.17;;;12.50;99.90;;;;;;5059019;28;20094;-66
2022/11/12 12:51:58;;;;;;;41.83;30.77;;;12.50;99.90;;;;;;5059152;28;20052;-65
2022/11/12 12:54:39;;;;;;;39.03;30.88;;;12.60;99.90;;;;;;5058898;28;20504;-66
2022/11/12 12:57:29;;;;;;;39.17;28.55;;;12.70;99.90;;;;;;5062812;28;20127;-65
2022/11/12 13:00:28;;;;;;;38.30;29.77;;;12.80;99.90;;;;;;5065733;28;20056;-65
2022/11/12 13:02:55;;;;;;;44.28;29.58;;;12.80;99.90;;;;;;5064200;28;20059;-66
2022/11/12 13:05:26;;;;;;;45.55;30.60;;;12.90;99.90;;;;;;5063569;28;20068;-66
2022/11/12 13:07:55;;;;;;;38.88;31.42;;;13.00;99.90;;;;;;5063131;28;20044;-66
2022/11/12 13:10:33;;;;;;;;;;;12.80;99.90;;;;;;5060272;28;20116;-66
2022/11/12 13:13:24;;;;;;;43.67;29.98;;;12.90;99.90;;;;;;5063100;28;20020;-66
2022/11/12 13:15:54;;;;;;;41.05;29.02;;;12.70;99.90;;;;;;5063295;28;20055;-65
2022/11/12 13:18:38;;;;;;;44.53;29.60;;;12.80;99.90;;;;;;5062597;28;20444;-66